NCAR-RAP Real-Time Weather Data

Output produced by METARs form (21 May 2019  10:38 UTC)
found at http://weather.rap.ucar.edu/surface/
 
ROIG 211000Z 03009KT 9999 FEW035 23/16 Q1009
ROIG 210900Z 01008KT 9999 FEW035 24/16 Q1009
ROIG 210800Z 02012KT 9999 FEW035 25/17 Q1009
ROIG 210700Z 04013KT 9999 FEW030 26/17 Q1009
ROIG 210600Z 01012KT 330V040 9999 FEW026 25/16 Q1009
ROIG 210500Z 01013KT 320V020 9999 FEW026 26/16 Q1009
ROIG 210400Z 03014KT 9999 FEW026 SCT/// 26/16 Q1010
ROIG 210300Z 02014KT 9999 FEW026 25/16 Q1010
ROIG 210200Z 02012KT 9999 FEW026 26/15 Q1010
ROIG 210100Z 03016KT 9999 FEW026 25/14 Q1011
ROIG 210000Z 02013KT 340V040 9999 FEW026 25/16 Q1011
ROIG 202300Z 02017KT 9999 FEW026 24/16 Q1010
ROIG 202200Z 02012KT 9999 FEW026 BKN080 23/15 Q1010
ROIG 202100Z 02013KT 9999 FEW026 SCT080 BKN/// 23/15 Q1009
ROIG 201100Z 01014KT 9999 SCT015 BKN022 25/23 Q1007
ROIG 201000Z 01014KT 9999 FEW013 BKN019 BKN100 25/23 Q1007
ROIG 200900Z 01014KT 9999 SCT013 BKN020 BKN100 26/24 Q1005
ROIG 200800Z 01011KT 320V030 9999 -SHRA BKN012 BKN070 26/24 Q1005
ROIG 200700Z 36009KT 9999 -SHRA FEW010 SCT025 BKN060 26/24 Q1005
ROIG 200600Z 01010KT 9999 -SHRA FEW009 SCT050 BKN160 26/25 Q1005
ROIG 200500Z 29004KT 250V320 9999 -SHRA FEW014 SCT025 BKN060 26/25 Q1006
ROIG 200441Z 35011KT 9999 -SHRA FEW011 SCT021 FEW025CB BKN050 25/24 Q1007 RMK 2CU011 4CU021 1CB025 6SC050 A2974 CB 10KM E MOV E
ROIG 200424Z 35013G23KT 9999 R04/0700VP1800U SHRA FEW007 SCT015 BKN021 FEW025CB 25/24 Q1007 RMK 1ST007 4CU015 6CU021 1CB025 A2974 4000E CB 5KM E MOV E
ROIG 200416Z 34013G23KT 2500 R04/0700VP1800D +TSRA FEW005 SCT011 BKN020 FEW025CB 25/24 Q1007 RMK 2ST005 4CU011 6CU020 2CB025 A2974 FBL TS OHD MOV E RI++
ROIG 200412Z 31011KT 260V340 4000 +TSRA FEW005 SCT011 BKN020 FEW025CB 25/25 Q1007 RMK 2ST005 4CU011 6CU020 2CB025 A2974 FBL TS OHD MOV E
ROIG 200400Z 01005KT 9999 TSRA FEW011 BKN020 FEW025CB BKN060 28/27 Q1006
ROIG 200346Z 36007KT 9999 SHRA FEW011 BKN020 BKN060 28/27 Q1006 RMK 2CU011 5CU020 7SC060 A2973
ROIG 200341Z 36006KT 9999 -SHRA FEW011 BKN020 FEW025TCU BKN060 28/26 Q1006 RMK 2CU011 5CU020 1TCU025 7SC060 A2973 TCU 8KM E MOV E
ROIG 200318Z 03006KT 9999 SHRA FEW014 BKN023 BKN060 28/27 Q1006 RMK 2CU014 5CU023 7SC060 A2973
ROIG 200300Z 05005KT 340V120 9999 -SHRA FEW014 BKN023 BKN060 29/26 Q1006
ROIG 200200Z 08005KT 050V110 9999 FEW016 BKN/// 30/27 Q1006
ROIG 200100Z 06005KT 030V110 9999 FEW012 BKN/// 30/28 Q1006
ROIG 200000Z 23003KT 190V280 9999 FEW012 SCT/// 28/26 Q1005
ROIG 192300Z VRB02KT 9999 FEW006 BKN012 28/27 Q1005
ROIG 192200Z VRB01KT 8000 FEW006 27/27 Q1005
ROIG 192100Z 26002KT 7000 FEW005 BKN011 BKN/// 26/26 Q1004
ROIG 191100Z 16002KT 9999 FEW009 BKN/// 27/27 Q1007
ROIG 191000Z 17003KT 140V200 9999 FEW005 BKN/// 28/27 Q1006
ROIG 190900Z 16006KT 9999 FEW006 BKN/// 28/27 Q1005
ROIG 190800Z 18008KT 9999 FEW007 SCT013 BKN/// 29/27 Q1006
ROIG 190700Z 17008KT 9999 FEW008 SCT014 BKN/// 29/27 Q1006
ROIG 190600Z 14008KT 9999 FEW007 SCT014 BKN050 29/27 Q1006
ROIG 190500Z 17009KT 9999 FEW009 SCT014 BKN050 29/27 Q1007
ROIG 190400Z 14008KT 060V160 9999 FEW008 SCT014 BKN/// 29/27 Q1007
ROIG 190300Z 12008KT 080V150 9999 FEW007 BKN014 BKN/// 29/27 Q1007
ROIG 190200Z 11006KT 9999 FEW010 SCT140 BKN/// 29/27 Q1007
ROIG 190100Z 08006KT 060V120 9999 SCT006 BKN/// 29/27 Q1008
ROIG 190000Z 08004KT 9999 FEW006 BKN070 27/26 Q1008
ROIG 182300Z 09005KT 9999 FEW003 BKN070 27/27 Q1007